Relevés horaires Schaffen (Belgique)


Relevés horaires à Schaffen - Mardi 21 Avr. 2026
Heure UTC1 Température [°C] Vent [km/h] Hum. [%] Pres.4 [hPa] Visi. [Km] Nébu. [octa] Préc.5 [mm] Cond.
2m. Res. Ros. Dir.2 Vit. Moy. Raf.3
23:00 8.6 8.6 -0.7 ENE 3.7 -- 9.3 52 1024.7(0.7/3h) >70 -- -- --
22:00 9.5 9 -0.7 ENE 5.6 -- 11.1 49 1024.5(1.0/3h) >70 -- -- --
21:00 10.0 9.6 -- NE 5.6 -- 14.8 -- 1024.4(1.6/3h) >70 -- -- --
20:00 10.5 10.2 0.8 NE 5.6 -- 13.0 51 1024(1.3/3h) >70 -- -- --
19:00 10.7 10.4 0.7 NE 5.6 -- 14.8 50 1023.3(0.7/3h) >70 -- -- --
18:00 13.1 12.8 0.3 NE 7.4 -- 20.4 41 1022.7(0.0/3h) >70 -- -- --
17:00 14.1 13.9 0.1 ENE 7.4 -- 18.5 38 1022.5(-0.5/3h) >70 -- -- --
16:00 14.8 14.5 1.0 NE 9.3 -- 18.5 39 1022.5(-0.8/3h) >70 -- -- --
15:00 15.1 14.8 2.2 NE 9.3 -- 20.4 42 1022.6(-0.8/3h) 20 3/8 -- --
14:00 13.9 13.7 1.5 ENE 7.4 -- 20.4 43 1023(-0.6/3h) 20 4/8 -- --
13:00 14.3 14.3 3.8 ENE 5.6 -- 14.8 49 1023.3(-0.5/3h) 20 4/8 -- --
12:00 13.6 13.3 3.6 ENE 7.4 -- 14.8 51 1023.6(-0.4/3h) 20 4/8 -- --
11:00 13.5 13.2 5.3 ENE 7.4 -- 13.0 58 1023.7(0.0/3h) 20 4/8 -- --
10:00 11.9 11.4 6.3 NNE 7.4 -- 11.1 69 1024(0.5/3h) 20 5/8 -- --
09:00 9.1 8.6 4.5 NE 5.6 -- 13.0 73 1024(0.9/3h) 15 5/8 -- --
08:00 8.6 8 5.1 E 5.6 -- 13.0 79 1023.7(1.0/3h) 14 -- -- --
07:00 7.5 6.7 4.8 ENE 5.6 -- 11.1 83 1023.5(1.0/3h) 11 -- -- --
06:00 6.6 6.6 4.6 ENE 3.7 -- 7.4 87 1023.2(0.8/3h) 10 -- 0.1/12h
--
05:00 6.4 6.4 4.1 NE 3.7 -- 7.4 85 1022.7(0.2/3h) 14 -- -- --
04:00 6.9 6.9 4.3 ENE 3.7 -- 5.6 83 1022.5(0.0/3h) 30 -- -- --
03:00 6.9 6.9 4.2 NNO 1.9 -- 7.4 83 1022.3(-0.1/3h) 40 -- -- --
02:00 6.5 6.5 4.2 N 3.7 -- 7.4 85 1022.6(0.2/3h) 40 -- -- --
01:00 5.5 5.5 3.2 NNE 3.7 -- 7.4 85 1022.6(0.5/3h) 45 -- -- --
00:00 5.9 5.9 3.4 NNE 3.7 -- 13.0 84 1022.6(0.8/3h) 45 -- 0.1/6h
NA

1 Coordinated Universal Time. Actuellement il est 22:00 locale et 20:00 UTC.

2 Le vent souffle depuis la direction indiquée vers la direction oposée.

3 Les rafales max. sont disponible 40 min après l'heure du relevé.

4 Pour les stations d'altitude (plus de 600m) le géopotentiel du niveau le plus proche de la pression obligatoire est indiqué.

5 Les stations disposant d'un diffuseur peuvent indiquer "trace". Cela signifie que des précipitations ont touchés le sol mais que la quantité est inférieure à 0.1 mm.

Récapitulatif de la journée
Température [°C] Vent [km/h] Ensoleillement4 [h] Precipitations totale5 [mm] Pression [Hpa]
Min1 Max.2 Moy.3 Max. Min Max.
5.3 15.8 0 20.4 0 h 0 min 0 1022.3 1024.7

1 Température minimale relevée entre 18:00 UTC la veille et 18:00 UTC le jour donné.

2 Température maximale relevée entre 06:00 UTC le jour donné et 06:00 UTC le lendemain.

3 Vent moyen de la journée basé sur les relevés horaires.

4 Ensoleillement en heures relevé entre 06:00 UTC la veille et 06:00 UTC le jour donné.

5 Précipitations totales tombées entre 06:00 UTC la jour donné et 06:00 UTC le lendemain.

Graphiques horaires